createdAt,value
2018-05-26T00:02:07.769Z,16.87
2018-05-26T00:07:11.006Z,16.83
2018-05-26T00:12:13.526Z,16.03
2018-05-26T00:17:15.966Z,15.87
2018-05-26T00:22:19.298Z,16.23
2018-05-26T00:27:22.714Z,16.90
2018-05-26T00:32:25.197Z,16.37
2018-05-26T00:37:27.722Z,16.63
2018-05-26T00:42:31.579Z,18.40
2018-05-26T00:47:34.414Z,17.50
2018-05-26T00:52:37.647Z,17.87
2018-05-26T00:57:40.103Z,16.70
2018-05-26T01:02:42.619Z,14.80
2018-05-26T01:07:45.565Z,13.67
2018-05-26T01:12:48.030Z,14.73
2018-05-26T01:17:57.771Z,13.60
2018-05-26T01:23:01.082Z,12.23
2018-05-26T01:28:04.363Z,14.00
2018-05-26T01:33:06.830Z,13.87
2018-05-26T01:38:09.345Z,11.10
2018-05-26T01:43:11.793Z,12.23
2018-05-26T01:48:14.277Z,12.60
2018-05-26T01:53:16.742Z,11.97
2018-05-26T01:58:20.032Z,12.50
2018-05-26T02:03:22.502Z,11.37
2018-05-26T02:08:25.141Z,10.33
2018-05-26T02:13:27.615Z,11.10
2018-05-26T02:18:30.066Z,10.43
2018-05-26T02:23:32.532Z,10.17
2018-05-26T02:28:35.763Z,10.80
2018-05-26T02:33:38.272Z,10.37
2018-05-26T02:38:40.688Z,10.23
2018-05-26T02:43:43.157Z,10.03
2018-05-26T02:48:45.613Z,9.93
2018-05-26T02:53:48.923Z,9.70
2018-05-26T02:58:52.127Z,9.80
2018-05-26T03:03:54.849Z,10.83
2018-05-26T03:09:03.066Z,10.03
2018-05-26T03:14:12.109Z,10.43
2018-05-26T03:19:15.337Z,10.33
2018-05-26T03:24:17.778Z,10.00
2018-05-26T03:29:20.229Z,10.57
2018-05-26T03:34:22.693Z,10.30
2018-05-26T03:39:25.983Z,10.20
2018-05-26T03:44:29.201Z,10.60
2018-05-26T03:49:31.663Z,11.00
2018-05-26T03:54:46.078Z,11.03
2018-05-26T04:00:10.419Z,12.07
2018-05-26T04:05:12.953Z,12.60
2018-05-26T04:10:15.426Z,12.17
2018-05-26T04:15:18.683Z,11.63
2018-05-26T04:20:22.793Z,11.90
2018-05-26T04:25:26.021Z,12.27
2018-05-26T04:30:29.367Z,11.93
2018-05-26T04:35:33.447Z,12.17
2018-05-26T04:40:35.964Z,12.63
2018-05-26T04:45:39.317Z,12.37
2018-05-26T04:50:41.765Z,13.03
2018-05-26T04:55:44.984Z,12.20
2018-05-26T05:00:48.204Z,11.90
2018-05-26T05:05:50.663Z,12.23
2018-05-26T05:10:53.129Z,11.30
2018-05-26T05:15:55.583Z,11.73
2018-05-26T05:20:58.053Z,11.43
2018-05-26T05:26:01.282Z,10.83
2018-05-26T05:31:05.070Z,9.37
2018-05-26T05:36:07.511Z,8.87
2018-05-26T05:41:10.950Z,9.00
2018-05-26T05:46:13.504Z,8.93
2018-05-26T05:51:17.722Z,8.13
2018-05-26T05:56:21.001Z,8.53
2018-05-26T06:01:32.252Z,8.63
2018-05-26T06:06:34.716Z,7.60
2018-05-26T06:11:37.152Z,7.60
2018-05-26T06:16:59.540Z,7.27
2018-05-26T06:22:02.106Z,7.40
2018-05-26T06:27:04.642Z,7.33
2018-05-26T06:32:07.085Z,6.67
2018-05-26T06:37:09.552Z,6.80
2018-05-26T06:42:12.793Z,7.13
2018-05-26T06:47:15.291Z,6.50
2018-05-26T06:52:17.762Z,6.77
2018-05-26T06:57:20.289Z,6.97
2018-05-26T07:02:22.812Z,6.00
2018-05-26T07:07:25.324Z,6.10
2018-05-26T07:12:29.063Z,6.07
2018-05-26T07:17:35.270Z,5.33
2018-05-26T07:22:38.511Z,6.00
2018-05-26T07:27:41.939Z,5.50
2018-05-26T07:32:44.466Z,5.77
2018-05-26T07:37:48.226Z,6.43
2018-05-26T07:42:50.777Z,5.10
2018-05-26T07:47:54.032Z,4.97
2018-05-26T07:52:56.576Z,4.50
2018-05-26T07:57:59.831Z,4.20
2018-05-26T08:03:02.348Z,4.47
2018-05-26T08:08:05.850Z,4.57
2018-05-26T08:13:30.007Z,4.43
2018-05-26T08:18:37.973Z,5.20
2018-05-26T08:23:40.435Z,3.90
2018-05-26T08:28:43.694Z,4.90
2018-05-26T08:33:46.165Z,4.33
2018-05-26T08:38:49.770Z,4.30
2018-05-26T08:43:52.227Z,4.40
2018-05-26T08:48:55.469Z,4.50
2018-05-26T08:53:58.915Z,4.10
2018-05-26T08:59:02.435Z,4.17
2018-05-26T09:04:04.946Z,3.60
2018-05-26T09:09:10.654Z,3.80
2018-05-26T09:14:13.174Z,4.17
2018-05-26T09:19:15.807Z,4.27
2018-05-26T09:24:20.978Z,4.20
2018-05-26T09:29:24.240Z,3.93
2018-05-26T09:34:29.283Z,4.30
2018-05-26T09:39:31.773Z,4.27
2018-05-26T09:44:34.315Z,4.33
2018-05-26T09:49:37.716Z,7.23
2018-05-26T09:54:40.397Z,4.27
2018-05-26T09:59:43.319Z,3.80
2018-05-26T10:04:47.658Z,4.50
2018-05-26T10:09:51.022Z,3.63
2018-05-26T10:14:54.052Z,3.77
2018-05-26T10:20:00.634Z,4.40
2018-05-26T10:25:03.465Z,4.10
2018-05-26T10:30:06.495Z,4.00
2018-05-26T10:35:10.049Z,4.07
2018-05-26T10:40:20.817Z,4.17
2018-05-26T10:45:39.458Z,3.90
2018-05-26T10:56:27.372Z,4.07
2018-05-26T11:01:30.601Z,3.83
2018-05-26T11:06:46.148Z,3.73
2018-05-26T11:11:59.506Z,4.20
2018-05-26T11:17:01.972Z,3.80
2018-05-26T11:22:04.445Z,4.00
2018-05-26T11:27:06.915Z,4.40
2018-05-26T11:32:10.135Z,3.60
2018-05-26T11:37:12.592Z,4.00
2018-05-26T11:42:39.226Z,3.97
2018-05-26T11:53:14.518Z,4.17
2018-05-26T11:58:25.924Z,4.23
2018-05-26T12:03:28.376Z,4.40
2018-05-26T12:08:30.872Z,3.60
2018-05-26T12:13:33.374Z,4.33
2018-05-26T12:18:35.812Z,4.27
2018-05-26T12:23:38.267Z,3.87
2018-05-26T12:28:40.814Z,3.90
2018-05-26T12:33:44.118Z,4.47
2018-05-26T12:44:20.431Z,4.43
2018-05-26T12:49:22.885Z,3.87
2018-05-26T12:54:25.325Z,4.37
2018-05-26T12:59:27.781Z,4.20
2018-05-26T13:04:30.246Z,4.37
2018-05-26T13:09:32.760Z,4.23
2018-05-26T13:14:35.213Z,4.60
2018-05-26T13:19:38.458Z,4.57
2018-05-26T13:24:40.954Z,4.30
2018-05-26T13:29:43.549Z,4.77
2018-05-26T13:34:45.987Z,4.17
2018-05-26T13:39:49.947Z,3.90
2018-05-26T13:44:52.435Z,4.53
2018-05-26T13:49:54.953Z,4.30
2018-05-26T13:54:57.493Z,4.47
2018-05-26T13:59:59.945Z,4.30
2018-05-26T14:05:02.407Z,4.77
2018-05-26T14:10:05.706Z,4.27
2018-05-26T14:15:08.910Z,4.10
2018-05-26T14:20:12.126Z,4.90
2018-05-26T14:25:15.475Z,4.20
2018-05-26T14:30:17.906Z,4.13
2018-05-26T14:35:20.368Z,4.17
2018-05-26T14:40:22.857Z,4.00
2018-05-26T14:45:25.323Z,4.50
2018-05-26T14:50:28.526Z,4.70
2018-05-26T14:55:32.585Z,4.30
2018-05-26T15:00:35.083Z,4.07
2018-05-26T15:05:37.537Z,5.00
2018-05-26T15:10:40.853Z,4.60
2018-05-26T15:15:44.065Z,4.37
2018-05-26T15:20:47.370Z,5.50
2018-05-26T15:25:49.806Z,4.43
2018-05-26T15:30:56.585Z,4.93
2018-05-26T15:35:59.983Z,4.80
2018-05-26T15:41:03.197Z,4.87
2018-05-26T15:46:05.649Z,5.20
2018-05-26T15:51:08.858Z,5.30
2018-05-26T15:56:11.301Z,5.13
2018-05-26T16:01:13.947Z,5.20
2018-05-26T16:06:16.437Z,5.17
2018-05-26T16:11:18.873Z,4.93
2018-05-26T16:16:21.318Z,4.67
2018-05-26T16:21:23.765Z,5.00
2018-05-26T16:26:26.355Z,4.97
2018-05-26T16:31:28.858Z,6.87
2018-05-26T16:36:31.309Z,5.50
2018-05-26T16:41:33.754Z,4.90
2018-05-26T16:46:36.235Z,4.90
2018-05-26T16:51:38.698Z,5.10
2018-05-26T16:56:41.931Z,5.27
2018-05-26T17:01:44.548Z,5.20
2018-05-26T17:06:46.973Z,5.53
2018-05-26T17:11:49.504Z,4.70
2018-05-26T17:16:51.958Z,6.10
2018-05-26T17:21:55.220Z,5.20
2018-05-26T17:26:57.664Z,5.50
2018-05-26T17:32:00.110Z,5.00
2018-05-26T17:37:02.552Z,5.33
2018-05-26T17:42:05.025Z,5.40
2018-05-26T17:47:07.480Z,5.10
2018-05-26T17:52:10.905Z,5.70
2018-05-26T17:57:13.466Z,5.47
2018-05-26T18:02:16.673Z,5.30
2018-05-26T18:07:19.902Z,5.93
2018-05-26T18:12:22.562Z,4.90
2018-05-26T18:17:25.022Z,5.63
2018-05-26T18:22:27.706Z,5.90
2018-05-26T18:27:30.162Z,5.57
2018-05-26T18:32:32.605Z,5.40
2018-05-26T18:37:35.055Z,6.80
2018-05-26T18:42:38.278Z,5.63
2018-05-26T18:47:40.725Z,7.87
2018-05-26T18:52:43.182Z,5.70
2018-05-26T18:57:45.635Z,7.77
2018-05-26T19:02:48.854Z,7.93
2018-05-26T19:07:51.306Z,8.10
2018-05-26T19:12:53.773Z,8.33
2018-05-26T19:17:56.223Z,5.90
2018-05-26T19:22:58.669Z,5.90
2018-05-26T19:28:01.133Z,8.13
2018-05-26T19:33:03.585Z,16.03
2018-05-26T19:38:06.033Z,8.00
2018-05-26T19:43:08.490Z,19.33
2018-05-26T19:48:10.939Z,6.67
2018-05-26T19:53:13.394Z,7.13
2018-05-26T19:58:15.902Z,10.37
2018-05-26T20:03:18.309Z,7.90
2018-05-26T20:08:20.761Z,9.00
2018-05-26T20:13:23.218Z,23.10
2018-05-26T20:18:25.700Z,54.93
2018-05-26T20:23:28.147Z,19.07
2018-05-26T20:28:31.359Z,8.30
2018-05-26T20:33:33.812Z,8.13
2018-05-26T20:38:36.269Z,8.20
2018-05-26T20:43:38.773Z,8.30
2018-05-26T20:48:41.173Z,8.93
2018-05-26T20:53:43.649Z,10.27
2018-05-26T20:58:46.110Z,8.50
2018-05-26T21:03:48.563Z,8.53
2018-05-26T21:08:51.765Z,8.90
2018-05-26T21:13:55.977Z,9.85
2018-05-26T21:18:58.430Z,9.23
2018-05-26T21:24:00.885Z,9.90
2018-05-26T21:29:03.341Z,9.37
2018-05-26T21:34:05.853Z,9.63
2018-05-26T21:39:09.074Z,9.70
2018-05-26T21:44:11.549Z,11.33
2018-05-26T21:49:14.774Z,12.03
2018-05-26T21:54:17.253Z,10.87
2018-05-26T21:59:19.714Z,11.00
2018-05-26T22:04:22.166Z,10.23
2018-05-26T22:09:24.622Z,10.80
2018-05-26T22:14:27.135Z,10.10
2018-05-26T22:19:30.314Z,10.60
2018-05-26T22:24:32.822Z,10.00
2018-05-26T22:29:35.282Z,10.10
2018-05-26T22:34:37.721Z,8.77
2018-05-26T22:39:40.179Z,9.20
2018-05-26T22:44:42.634Z,7.50
2018-05-26T22:49:45.846Z,6.67
2018-05-26T22:54:49.058Z,5.70
2018-05-26T22:59:51.507Z,5.33
2018-05-26T23:04:53.967Z,4.97
2018-05-26T23:09:56.425Z,4.63
2018-05-26T23:14:58.876Z,4.77
2018-05-26T23:20:01.321Z,4.07
2018-05-26T23:25:03.776Z,3.97
2018-05-26T23:30:07.293Z,4.50
2018-05-26T23:35:10.511Z,4.07
2018-05-26T23:40:12.993Z,4.33
2018-05-26T23:45:15.442Z,4.50
2018-05-26T23:50:17.893Z,4.50
2018-05-26T23:55:20.338Z,4.40
